Time;durP1;ratioP1;P1;durP2;ratioP2;P2;SDS_P1;SDS_P2;PMS_P1;PMS_P2;Temp;Humidity;BMP_temperature;BMP_pressure;BME280_temperature;BME280_humidity;BME280_pressure;Samples;Min_cycle;Max_cycle;Signal;HPM_P1;HPM_P2
2022/03/31 00:00:36;;;;;;;8.90;2.60;;;;;;;;;;5102131;28;20402;-70
2022/03/31 00:03:05;;;;;;;10.97;2.93;;;;;;;;;;5101697;28;20074;-70
2022/03/31 00:05:32;;;;;;;14.03;3.50;;;;;;;;;;5113456;28;20044;-70
2022/03/31 00:08:03;;;;;;;7.70;2.70;;;;;;;;;;5094496;28;20048;-70
2022/03/31 00:10:34;;;;;;;6.80;2.23;;;;;;;;;;5097048;28;20043;-70
2022/03/31 00:13:01;;;;;;;14.27;2.40;;;;;;;;;;5093689;28;20080;-71
2022/03/31 00:15:28;;;;;;;6.27;2.03;;;;;;;;;;5105371;28;20047;-71
2022/03/31 00:17:55;;;;;;;17.93;3.03;;;;;;;;;;5113477;28;20074;-71
2022/03/31 00:32:36;;;;;;;11.23;3.17;;;;;;;;;;5083505;28;20058;-72
2022/03/31 00:35:02;;;;;;;7.03;2.20;;;;;;;;;;5112364;28;20043;-72
2022/03/31 00:37:38;;;;;;;9.17;2.47;;;;;;;;;;5092870;28;20081;-73
2022/03/31 00:40:04;;;;;;;9.80;2.63;;;;;;;;;;5093459;28;20063;-72
2022/03/31 00:42:31;;;;;;;9.87;2.63;;;;;;;;;;5109700;28;20152;-72
2022/03/31 00:44:57;;;;;;;11.70;3.10;;;;;;;;;;5112010;28;20047;-72
2022/03/31 00:47:23;;;;;;;7.80;2.73;;;;;;;;;;5107936;28;20040;-72
2022/03/31 00:49:50;;;;;;;12.70;3.23;;;;;;;;;;5092213;28;20040;-72
2022/03/31 00:52:16;;;;;;;10.53;2.80;;;;;;;;;;5102522;28;20056;-71
2022/03/31 00:54:43;;;;;;;17.03;3.37;;;;;;;;;;5112222;28;20048;-71
2022/03/31 00:57:10;;;;;;;12.43;3.10;;;;;;;;;;5109470;28;20043;-71
2022/03/31 00:59:37;;;;;;;13.40;3.50;;;;;;;;;;5112473;28;20429;-71
2022/03/31 01:02:03;;;;;;;7.60;3.23;;;;;;;;;;5111637;28;20117;-71
2022/03/31 01:04:29;;;;;;;16.60;3.80;;;;;;;;;;5089277;28;20044;-71
2022/03/31 01:06:56;;;;;;;13.23;4.23;;;;;;;;;;5091655;28;20044;-71
2022/03/31 01:09:23;;;;;;;8.70;3.63;;;;;;;;;;5091893;28;20355;-72
2022/03/31 01:11:49;;;;;;;9.83;3.20;;;;;;;;;;5093205;28;20075;-72
2022/03/31 01:14:15;;;;;;;12.17;3.60;;;;;;;;;;5101565;28;20111;-72
2022/03/31 01:16:42;;;;;;;13.63;3.20;;;;;;;;;;5111310;28;20056;-72
2022/03/31 01:19:09;;;;;;;11.77;3.23;;;;;;;;;;5094260;28;20052;-73
2022/03/31 01:21:42;;;;;;;15.27;3.37;;;;;;;;;;5074544;28;20082;-74
2022/03/31 01:24:09;;;;;;;13.15;3.33;;;;;;;;;;5111957;28;20054;-74
2022/03/31 01:26:38;;;;;;;10.63;2.87;;;;;;;;;;5091038;28;20048;-73
2022/03/31 01:29:04;;;;;;;10.57;2.93;;;;;;;;;;5091572;28;20071;-73
2022/03/31 01:31:30;;;;;;;12.37;3.60;;;;;;;;;;5092119;28;20047;-72
2022/03/31 01:33:57;;;;;;;11.50;3.40;;;;;;;;;;5112004;28;20100;-72
2022/03/31 01:36:24;;;;;;;10.93;3.20;;;;;;;;;;5092685;28;20104;-72
2022/03/31 01:38:50;;;;;;;11.63;3.70;;;;;;;;;;5091488;28;20480;-73
2022/03/31 01:41:16;;;;;;;7.67;2.27;;;;;;;;;;5092539;28;20090;-73
2022/03/31 01:43:42;;;;;;;8.60;2.23;;;;;;;;;;5085783;28;20520;-74
2022/03/31 01:46:09;;;;;;;9.30;3.10;;;;;;;;;;5100413;28;20044;-73
2022/03/31 01:48:35;;;;;;;10.57;2.77;;;;;;;;;;5108416;28;20047;-73
2022/03/31 01:51:04;;;;;;;14.00;2.97;;;;;;;;;;5079151;28;20116;-73
2022/03/31 01:53:30;;;;;;;10.17;2.80;;;;;;;;;;5091535;28;20287;-72
2022/03/31 01:55:56;;;;;;;10.77;2.97;;;;;;;;;;5090651;28;20119;-72
2022/03/31 01:58:23;;;;;;;12.30;3.27;;;;;;;;;;5080356;28;20081;-72
2022/03/31 02:00:50;;;;;;;12.33;2.67;;;;;;;;;;5111124;28;20515;-72
2022/03/31 02:03:17;;;;;;;13.03;3.60;;;;;;;;;;5085325;28;20066;-72
2022/03/31 02:05:43;;;;;;;13.50;3.83;;;;;;;;;;5092301;28;20035;-73
2022/03/31 02:08:09;;;;;;;13.87;3.20;;;;;;;;;;5093092;28;20284;-72
2022/03/31 02:10:35;;;;;;;13.10;3.20;;;;;;;;;;5092373;28;20564;-72
2022/03/31 02:13:02;;;;;;;21.40;4.50;;;;;;;;;;5077550;28;20122;-72
2022/03/31 02:15:31;;;;;;;12.77;3.13;;;;;;;;;;5061535;28;20134;-71
2022/03/31 02:17:57;;;;;;;9.00;2.83;;;;;;;;;;5110163;28;20039;-71
2022/03/31 02:20:26;;;;;;;10.67;3.43;;;;;;;;;;5110853;28;20100;-71
2022/03/31 02:22:53;;;;;;;7.57;2.97;;;;;;;;;;5091722;28;20663;-73
2022/03/31 02:25:19;;;;;;;11.30;3.27;;;;;;;;;;5111176;28;20044;-74
2022/03/31 02:27:50;;;;;;;15.20;3.83;;;;;;;;;;5091462;28;20075;-74
2022/03/31 02:30:16;;;;;;;15.10;4.27;;;;;;;;;;5110421;28;20051;-74
2022/03/31 02:32:43;;;;;;;13.90;3.23;;;;;;;;;;5107285;28;20043;-74
2022/03/31 02:35:09;;;;;;;9.00;3.07;;;;;;;;;;5091436;28;20043;-74
2022/03/31 02:37:35;;;;;;;13.20;3.73;;;;;;;;;;5092564;28;20052;-74
2022/03/31 02:40:02;;;;;;;9.20;3.13;;;;;;;;;;5107162;28;20047;-73
2022/03/31 02:42:28;;;;;;;10.83;3.47;;;;;;;;;;5071284;28;20040;-73
2022/03/31 02:44:54;;;;;;;14.57;3.87;;;;;;;;;;5104854;28;20451;-73
2022/03/31 02:47:20;;;;;;;14.47;3.63;;;;;;;;;;5087185;28;20482;-72
2022/03/31 02:49:46;;;;;;;11.33;3.53;;;;;;;;;;5089784;28;20498;-72
2022/03/31 02:52:12;;;;;;;8.73;2.80;;;;;;;;;;5092629;28;20100;-72
2022/03/31 02:57:23;;;;;;;11.77;3.93;;;;;;;;;;5089195;28;20812;-72
2022/03/31 02:59:49;;;;;;;16.00;5.73;;;;;;;;;;5110393;28;20052;-72
2022/03/31 03:02:15;;;;;;;9.37;3.27;;;;;;;;;;5102794;28;20067;-72
2022/03/31 03:04:42;;;;;;;14.67;3.80;;;;;;;;;;5089050;28;20069;-72
2022/03/31 03:07:09;;;;;;;14.73;3.60;;;;;;;;;;5089689;28;20521;-72
2022/03/31 03:09:36;;;;;;;16.70;4.17;;;;;;;;;;5109784;28;20047;-72
2022/03/31 03:12:03;;;;;;;14.63;4.20;;;;;;;;;;5101778;28;20036;-71
2022/03/31 03:14:29;;;;;;;17.47;4.03;;;;;;;;;;5078484;28;20439;-71
2022/03/31 03:16:55;;;;;;;16.50;4.40;;;;;;;;;;5089844;28;20418;-72
2022/03/31 03:19:21;;;;;;;15.40;4.73;;;;;;;;;;5073079;28;20051;-72
2022/03/31 03:21:47;;;;;;;11.87;4.27;;;;;;;;;;5104686;28;20097;-74
2022/03/31 03:24:13;;;;;;;15.47;4.80;;;;;;;;;;5091619;28;20043;-74
2022/03/31 03:26:39;;;;;;;16.87;4.70;;;;;;;;;;5109423;28;20301;-73
2022/03/31 03:29:05;;;;;;;14.77;4.30;;;;;;;;;;5110222;28;20048;-73
2022/03/31 03:31:31;;;;;;;14.27;4.83;;;;;;;;;;5108416;28;20047;-73
2022/03/31 03:33:58;;;;;;;22.10;5.37;;;;;;;;;;5074820;28;20086;-73
2022/03/31 03:36:24;;;;;;;17.43;4.97;;;;;;;;;;5108903;28;20070;-73
2022/03/31 03:38:50;;;;;;;19.83;6.07;;;;;;;;;;5110054;28;20052;-73
2022/03/31 03:41:16;;;;;;;19.03;6.37;;;;;;;;;;5098610;28;20313;-73
2022/03/31 03:43:42;;;;;;;20.03;5.53;;;;;;;;;;5096627;28;20036;-73
2022/03/31 03:46:09;;;;;;;19.53;6.60;;;;;;;;;;5107176;28;20122;-73
2022/03/31 03:48:35;;;;;;;25.37;7.60;;;;;;;;;;5069625;28;20052;-74
2022/03/31 03:51:01;;;;;;;21.07;7.20;;;;;;;;;;5089624;28;20044;-74
2022/03/31 03:53:27;;;;;;;24.00;8.27;;;;;;;;;;5092694;28;20580;-74
2022/03/31 03:55:53;;;;;;;19.17;7.47;;;;;;;;;;5089630;28;20047;-75
2022/03/31 03:58:20;;;;;;;23.37;8.17;;;;;;;;;;5071807;28;20128;-75
2022/03/31 04:00:46;;;;;;;28.50;8.50;;;;;;;;;;5071212;28;20048;-75
2022/03/31 04:03:12;;;;;;;25.00;8.83;;;;;;;;;;5071435;28;20097;-76
2022/03/31 04:05:38;;;;;;;38.17;11.03;;;;;;;;;;5082343;28;20083;-76
2022/03/31 04:08:04;;;;;;;28.30;10.47;;;;;;;;;;5096128;28;20719;-76
2022/03/31 04:10:31;;;;;;;32.37;11.23;;;;;;;;;;5109709;28;20079;-76
2022/03/31 04:12:57;;;;;;;26.30;11.37;;;;;;;;;;5076321;28;20040;-76
2022/03/31 04:15:23;;;;;;;33.53;12.63;;;;;;;;;;5098047;28;20059;-76
2022/03/31 04:17:49;;;;;;;31.47;11.33;;;;;;;;;;5074747;28;20441;-76
2022/03/31 04:20:15;;;;;;;52.80;14.00;;;;;;;;;;5113456;28;20042;-76
2022/03/31 04:22:42;;;;;;;52.40;14.83;;;;;;;;;;5112768;28;20286;-76
2022/03/31 04:25:09;;;;;;;40.87;13.10;;;;;;;;;;5092526;28;20060;-76
2022/03/31 04:27:36;;;;;;;50.60;15.90;;;;;;;;;;5068912;28;20409;-75
2022/03/31 04:30:03;;;;;;;46.50;14.90;;;;;;;;;;5092544;28;20044;-75
2022/03/31 04:32:29;;;;;;;48.13;15.50;;;;;;;;;;5105838;28;20051;-75
2022/03/31 04:34:56;;;;;;;57.30;17.50;;;;;;;;;;5091338;28;20064;-74
2022/03/31 04:37:22;;;;;;;51.20;16.37;;;;;;;;;;5087160;28;20079;-75
2022/03/31 04:39:48;;;;;;;52.33;16.83;;;;;;;;;;5094629;28;20101;-75
2022/03/31 04:42:14;;;;;;;55.77;18.10;;;;;;;;;;5089774;28;20501;-75
2022/03/31 04:44:40;;;;;;;65.70;19.53;;;;;;;;;;5070737;28;20497;-76
2022/03/31 04:47:07;;;;;;;58.80;18.43;;;;;;;;;;5092306;28;20055;-77
2022/03/31 04:49:33;;;;;;;43.30;15.97;;;;;;;;;;5057681;28;20064;-77
2022/03/31 04:51:59;;;;;;;48.00;18.47;;;;;;;;;;5074443;28;20048;-76
2022/03/31 04:54:26;;;;;;;50.33;18.83;;;;;;;;;;5073439;28;20924;-76
2022/03/31 04:56:52;;;;;;;46.00;18.07;;;;;;;;;;5078947;28;20042;-76
2022/03/31 04:59:18;;;;;;;52.20;18.70;;;;;;;;;;5107937;28;20048;-76
2022/03/31 05:01:44;;;;;;;60.90;19.33;;;;;;;;;;5085135;28;20044;-76
2022/03/31 05:04:11;;;;;;;64.83;20.97;;;;;;;;;;5073799;28;20491;-76
2022/03/31 05:06:37;;;;;;;58.33;19.07;;;;;;;;;;5092298;28;20043;-76
2022/03/31 05:09:03;;;;;;;66.60;21.97;;;;;;;;;;5057681;28;20067;-76
2022/03/31 05:11:29;;;;;;;45.67;18.53;;;;;;;;;;5092356;28;20070;-76
2022/03/31 05:13:56;;;;;;;61.10;20.13;;;;;;;;;;5074597;28;20106;-76
2022/03/31 05:16:22;;;;;;;155.57;27.97;;;;;;;;;;5101732;28;20472;-75
2022/03/31 05:18:48;;;;;;;53.07;18.67;;;;;;;;;;5111893;28;20044;-75
2022/03/31 05:21:14;;;;;;;71.63;21.83;;;;;;;;;;5108817;28;20043;-75
2022/03/31 05:23:41;;;;;;;58.30;19.87;;;;;;;;;;5103951;28;20039;-75
2022/03/31 05:26:07;;;;;;;44.33;17.20;;;;;;;;;;5085972;28;20505;-75
2022/03/31 05:28:33;;;;;;;59.63;20.53;;;;;;;;;;5106848;28;20043;-75
2022/03/31 05:30:59;;;;;;;159.50;28.77;;;;;;;;;;5108757;28;20088;-75
2022/03/31 05:33:25;;;;;;;87.00;22.20;;;;;;;;;;5073768;28;20044;-75
2022/03/31 05:35:51;;;;;;;43.13;16.20;;;;;;;;;;5091706;28;20494;-74
2022/03/31 05:38:17;;;;;;;60.43;20.57;;;;;;;;;;5087969;28;20052;-74
2022/03/31 05:40:43;;;;;;;36.90;15.70;;;;;;;;;;5101358;28;20064;-74
2022/03/31 05:43:09;;;;;;;39.37;15.67;;;;;;;;;;5086615;28;20059;-74
2022/03/31 05:45:36;;;;;;;37.97;15.70;;;;;;;;;;5107879;28;20055;-74
2022/03/31 05:48:02;;;;;;;45.17;16.23;;;;;;;;;;5108603;28;20047;-74
2022/03/31 05:50:28;;;;;;;34.40;15.53;;;;;;;;;;5072518;28;20521;-74
2022/03/31 05:52:54;;;;;;;47.93;16.43;;;;;;;;;;5090572;28;20510;-74
2022/03/31 05:55:21;;;;;;;30.50;13.30;;;;;;;;;;5056146;28;20051;-74
2022/03/31 05:57:47;;;;;;;63.27;18.53;;;;;;;;;;5109963;28;20451;-74
2022/03/31 06:00:14;;;;;;;38.33;15.33;;;;;;;;;;5108457;28;20035;-75
2022/03/31 06:02:40;;;;;;;48.57;16.40;;;;;;;;;;5090470;28;20048;-75
2022/03/31 06:05:07;;;;;;;36.67;14.27;;;;;;;;;;5059183;28;20474;-76
2022/03/31 06:07:33;;;;;;;43.17;16.27;;;;;;;;;;5073400;28;20059;-78
2022/03/31 06:09:59;;;;;;;51.20;17.30;;;;;;;;;;5072493;28;20044;-79
2022/03/31 06:12:25;;;;;;;66.13;18.87;;;;;;;;;;5104620;28;20130;-80
2022/03/31 06:14:51;;;;;;;50.67;16.27;;;;;;;;;;5085323;28;20047;-79
2022/03/31 06:17:17;;;;;;;38.73;14.87;;;;;;;;;;5064977;28;20048;-79
2022/03/31 06:19:43;;;;;;;159.17;23.67;;;;;;;;;;5088390;28;20039;-79
2022/03/31 06:22:09;;;;;;;61.33;18.97;;;;;;;;;;5095216;28;20046;-78
2022/03/31 06:24:35;;;;;;;60.03;17.27;;;;;;;;;;5092323;28;20047;-78
2022/03/31 06:27:02;;;;;;;65.40;18.80;;;;;;;;;;5076439;28;20414;-78
2022/03/31 06:29:30;;;;;;;39.57;14.97;;;;;;;;;;5100481;28;20054;-77
2022/03/31 06:31:56;;;;;;;245.10;31.40;;;;;;;;;;5084416;28;20051;-77
2022/03/31 06:34:23;;;;;;;70.47;19.97;;;;;;;;;;5073910;28;20050;-76
2022/03/31 06:36:49;;;;;;;68.83;21.13;;;;;;;;;;5073745;28;20056;-76
2022/03/31 06:39:15;;;;;;;188.87;30.90;;;;;;;;;;5079519;28;20044;-76
2022/03/31 06:41:42;;;;;;;72.90;22.70;;;;;;;;;;5078608;28;20121;-75
2022/03/31 06:44:08;;;;;;;102.30;27.10;;;;;;;;;;5071867;28;20102;-74
2022/03/31 06:46:35;;;;;;;36.57;16.43;;;;;;;;;;5079129;28;20040;-75
2022/03/31 06:49:02;;;;;;;286.77;34.60;;;;;;;;;;5089053;28;20225;-75
2022/03/31 06:51:28;;;;;;;43.30;16.87;;;;;;;;;;5070220;28;20102;-76
2022/03/31 06:53:58;;;;;;;33.83;13.77;;;;;;;;;;5089809;28;20048;-75
2022/03/31 06:56:27;;;;;;;38.13;14.63;;;;;;;;;;5090030;28;20513;-76
2022/03/31 06:58:53;;;;;;;40.63;15.40;;;;;;;;;;5071424;28;20473;-74
2022/03/31 07:01:19;;;;;;;33.00;14.47;;;;;;;;;;5109144;28;20047;-75
2022/03/31 07:03:45;;;;;;;42.27;16.57;;;;;;;;;;5074734;28;20046;-74
2022/03/31 07:06:12;;;;;;;57.07;18.07;;;;;;;;;;5078166;28;20040;-74
2022/03/31 07:08:38;;;;;;;67.63;19.20;;;;;;;;;;5089389;28;20131;-74
2022/03/31 07:11:04;;;;;;;34.87;15.57;;;;;;;;;;5071400;28;20055;-74
2022/03/31 07:13:31;;;;;;;18.27;8.57;;;;;;;;;;5066931;28;20134;-74
2022/03/31 07:15:57;;;;;;;41.70;15.27;;;;;;;;;;5091522;28;20050;-74
2022/03/31 07:18:23;;;;;;;34.50;14.90;;;;;;;;;;5109633;28;20046;-74
2022/03/31 07:20:52;;;;;;;34.47;14.93;;;;;;;;;;5074788;28;20054;-74
2022/03/31 07:23:19;;;;;;;26.63;13.30;;;;;;;;;;5110037;28;20043;-75
2022/03/31 07:25:45;;;;;;;41.93;15.67;;;;;;;;;;5084451;28;20052;-75
2022/03/31 07:28:11;;;;;;;31.30;14.13;;;;;;;;;;5071598;28;20056;-76
2022/03/31 07:30:37;;;;;;;22.30;12.03;;;;;;;;;;5087865;28;20048;-76
2022/03/31 07:33:04;;;;;;;46.07;16.43;;;;;;;;;;5089044;28;20138;-77
2022/03/31 07:35:32;;;;;;;27.77;13.90;;;;;;;;;;5070524;28;20135;-77
2022/03/31 07:37:58;;;;;;;27.03;10.77;;;;;;;;;;5071092;28;20074;-78
2022/03/31 07:40:25;;;;;;;22.20;13.10;;;;;;;;;;5070838;28;20131;-77
2022/03/31 07:42:52;;;;;;;33.93;14.70;;;;;;;;;;5071288;28;20066;-77
2022/03/31 07:45:19;;;;;;;29.70;13.90;;;;;;;;;;5089064;28;20049;-76
2022/03/31 07:47:45;;;;;;;20.67;12.60;;;;;;;;;;5070967;28;20051;-76
2022/03/31 07:50:13;;;;;;;40.67;15.87;;;;;;;;;;5090142;28;20063;-77
2022/03/31 07:52:40;;;;;;;43.43;15.40;;;;;;;;;;5093224;28;20570;-76
2022/03/31 07:55:07;;;;;;;35.33;14.53;;;;;;;;;;5075112;28;20083;-76
2022/03/31 07:57:34;;;;;;;30.20;14.27;;;;;;;;;;5075030;28;20040;-76
2022/03/31 08:00:00;;;;;;;20.23;11.53;;;;;;;;;;5058186;28;20047;-77
2022/03/31 08:02:26;;;;;;;39.47;15.90;;;;;;;;;;5075020;28;20899;-78
2022/03/31 08:04:53;;;;;;;20.60;12.63;;;;;;;;;;5074859;28;20115;-78
2022/03/31 08:07:19;;;;;;;46.03;16.83;;;;;;;;;;5074991;28;20048;-77
2022/03/31 08:09:45;;;;;;;26.80;14.17;;;;;;;;;;5074853;28;20056;-77
2022/03/31 08:12:11;;;;;;;32.13;15.57;;;;;;;;;;5092876;28;20054;-77
2022/03/31 08:14:37;;;;;;;37.87;15.77;;;;;;;;;;5092528;28;20052;-78
2022/03/31 08:17:04;;;;;;;32.77;15.43;;;;;;;;;;5074358;28;20728;-77
2022/03/31 08:19:32;;;;;;;27.80;14.33;;;;;;;;;;5092818;28;20044;-78
2022/03/31 08:21:59;;;;;;;57.13;19.27;;;;;;;;;;5074737;28;20127;-79
2022/03/31 08:24:26;;;;;;;64.30;20.47;;;;;;;;;;5074024;28;20052;-78
2022/03/31 08:26:52;;;;;;;29.03;15.13;;;;;;;;;;5074428;28;20063;-79
2022/03/31 08:29:18;;;;;;;27.53;15.03;;;;;;;;;;5092688;28;20168;-81
2022/03/31 08:31:44;;;;;;;41.30;17.00;;;;;;;;;;5057324;28;20135;-81
2022/03/31 08:34:10;;;;;;;44.03;17.70;;;;;;;;;;5074177;28;20071;-82
2022/03/31 08:36:36;;;;;;;53.07;19.10;;;;;;;;;;5074531;28;20054;-83
2022/03/31 08:39:04;;;;;;;50.37;18.07;;;;;;;;;;5073712;28;20581;-83
2022/03/31 08:41:30;;;;;;;35.33;16.73;;;;;;;;;;5092317;28;20563;-84
2022/03/31 08:43:56;;;;;;;56.03;18.47;;;;;;;;;;5073645;28;20059;-84
2022/03/31 08:46:23;;;;;;;36.80;17.47;;;;;;;;;;5074348;28;20088;-84
2022/03/31 08:48:49;;;;;;;39.60;16.03;;;;;;;;;;5057507;28;20051;-85
2022/03/31 08:51:15;;;;;;;45.13;17.37;;;;;;;;;;5074053;28;20052;-83
2022/03/31 08:53:41;;;;;;;56.97;19.63;;;;;;;;;;5074063;28;20052;-84
2022/03/31 08:56:09;;;;;;;59.60;20.30;;;;;;;;;;5073853;28;20403;-83
2022/03/31 08:58:35;;;;;;;48.43;18.53;;;;;;;;;;5073724;28;20143;-84
2022/03/31 09:01:01;;;;;;;55.13;19.27;;;;;;;;;;5073131;28;20135;-84
2022/03/31 09:03:34;;;;;;;42.13;17.10;;;;;;;;;;5056309;28;20051;-85
2022/03/31 09:06:00;;;;;;;53.83;19.80;;;;;;;;;;5073163;28;20050;-85
2022/03/31 09:08:26;;;;;;;55.63;20.03;;;;;;;;;;5073699;28;20436;-85
2022/03/31 09:10:57;;;;;;;88.87;25.00;;;;;;;;;;5073508;28;20056;-84
2022/03/31 09:13:23;;;;;;;112.57;28.37;;;;;;;;;;5072810;28;20047;-84
2022/03/31 09:15:53;;;;;;;56.83;20.97;;;;;;;;;;5072405;28;20048;-85
2022/03/31 09:18:23;;;;;;;52.90;20.33;;;;;;;;;;5072922;28;20048;-85
2022/03/31 09:20:50;;;;;;;72.33;22.37;;;;;;;;;;5072332;28;20078;-85
2022/03/31 09:23:17;;;;;;;68.17;22.73;;;;;;;;;;5072701;28;20051;-85
2022/03/31 09:25:44;;;;;;;83.70;23.50;;;;;;;;;;5093025;28;20055;-83
2022/03/31 09:28:14;;;;;;;70.70;20.17;;;;;;;;;;5074078;28;20075;-84
2022/03/31 09:30:44;;;;;;;120.80;27.63;;;;;;;;;;5091996;28;20475;-84
2022/03/31 09:33:10;;;;;;;144.00;31.10;;;;;;;;;;5090487;28;20051;-83
2022/03/31 09:35:36;;;;;;;68.23;20.87;;;;;;;;;;5071718;28;20051;-82
2022/03/31 09:38:11;;;;;;;91.03;25.40;;;;;;;;;;5090343;28;20048;-83
2022/03/31 09:40:37;;;;;;;71.30;21.07;;;;;;;;;;5071952;28;20052;-82
2022/03/31 09:43:03;;;;;;;64.07;20.77;;;;;;;;;;5071950;28;20091;-82
2022/03/31 09:45:39;;;;;;;119.10;27.00;;;;;;;;;;5072184;28;20134;-81
2022/03/31 09:48:08;;;;;;;102.67;25.03;;;;;;;;;;5090323;28;20048;-82
2022/03/31 09:50:38;;;;;;;94.53;24.23;;;;;;;;;;5054705;28;20526;-82
2022/03/31 09:53:04;;;;;;;203.57;35.03;;;;;;;;;;5071937;28;20036;-82
2022/03/31 09:55:30;;;;;;;59.60;18.00;;;;;;;;;;5090431;28;20044;-85
2022/03/31 09:57:57;;;;;;;137.57;26.07;;;;;;;;;;5055490;28;20067;-84
2022/03/31 10:00:24;;;;;;;240.13;41.30;;;;;;;;;;5055282;28;20047;-83
2022/03/31 10:02:51;;;;;;;44.47;14.40;;;;;;;;;;5089625;28;20048;-82
2022/03/31 10:05:18;;;;;;;52.47;14.77;;;;;;;;;;5089980;28;20098;-81
2022/03/31 10:07:46;;;;;;;25.10;11.83;;;;;;;;;;5089568;28;20098;-82
2022/03/31 10:10:12;;;;;;;92.37;21.37;;;;;;;;;;5089891;28;20080;-82
2022/03/31 10:12:43;;;;;;;18.63;9.90;;;;;;;;;;5089285;28;20066;-81
2022/03/31 10:15:12;;;;;;;114.33;22.07;;;;;;;;;;5089067;28;20406;-80
2022/03/31 10:17:38;;;;;;;176.03;29.97;;;;;;;;;;5089588;28;20511;-79
2022/03/31 10:20:14;;;;;;;38.77;11.83;;;;;;;;;;5089150;28;20101;-80
2022/03/31 10:25:35;;;;;;;13.33;6.87;;;;;;;;;;5089148;28;20060;-77
2022/03/31 10:28:07;;;;;;;21.57;7.87;;;;;;;;;;5089293;28;20054;-76
2022/03/31 10:30:34;;;;;;;7.90;4.67;;;;;;;;;;5071310;28;20047;-75
2022/03/31 10:33:08;;;;;;;7.23;4.13;;;;;;;;;;5089459;28;20051;-76
2022/03/31 10:35:35;;;;;;;7.77;4.23;;;;;;;;;;5089091;28;20071;-76
2022/03/31 10:38:15;;;;;;;10.93;4.87;;;;;;;;;;5088438;28;20047;-75
2022/03/31 10:40:42;;;;;;;12.27;5.13;;;;;;;;;;5071529;28;20059;-75
2022/03/31 10:43:21;;;;;;;8.37;4.70;;;;;;;;;;5071059;28;20489;-75
2022/03/31 10:45:48;;;;;;;6.50;4.00;;;;;;;;;;5070650;28;20059;-75
2022/03/31 10:48:19;;;;;;;7.00;4.03;;;;;;;;;;5087901;28;20459;-75
2022/03/31 10:50:46;;;;;;;6.83;4.20;;;;;;;;;;5092672;28;20046;-75
2022/03/31 10:53:12;;;;;;;6.63;3.80;;;;;;;;;;5089492;28;20044;-74
2022/03/31 10:55:43;;;;;;;9.23;4.50;;;;;;;;;;5088014;28;20040;-75
2022/03/31 10:58:25;;;;;;;4.67;3.43;;;;;;;;;;5053775;28;20048;-75
2022/03/31 11:00:56;;;;;;;7.07;3.43;;;;;;;;;;5055704;28;20050;-74
2022/03/31 11:03:22;;;;;;;4.83;3.03;;;;;;;;;;5108976;28;20054;-74
2022/03/31 11:05:48;;;;;;;12.17;4.40;;;;;;;;;;5108719;28;20058;-74
2022/03/31 11:08:18;;;;;;;5.50;3.83;;;;;;;;;;5108698;28;20702;-74
2022/03/31 11:10:45;;;;;;;5.87;4.30;;;;;;;;;;5108650;28;20047;-74
2022/03/31 11:13:13;;;;;;;7.30;4.00;;;;;;;;;;5108346;28;20079;-74
2022/03/31 11:15:39;;;;;;;6.97;4.23;;;;;;;;;;5108797;28;20485;-73
2022/03/31 11:18:07;;;;;;;7.90;4.30;;;;;;;;;;5108874;28;20508;-74
2022/03/31 11:20:33;;;;;;;7.97;4.83;;;;;;;;;;5090524;28;20055;-74
2022/03/31 11:23:06;;;;;;;6.90;3.87;;;;;;;;;;5090546;28;20055;-74
2022/03/31 11:25:33;;;;;;;8.88;4.90;;;;;;;;;;5110188;28;20100;-74
2022/03/31 11:28:07;;;;;;;5.80;4.10;;;;;;;;;;5113006;28;20079;-74
2022/03/31 11:30:33;;;;;;;8.50;4.10;;;;;;;;;;5113139;28;20039;-75
2022/03/31 11:33:00;;;;;;;7.67;4.40;;;;;;;;;;5113294;28;20043;-77
2022/03/31 11:35:28;;;;;;;6.83;4.17;;;;;;;;;;5112606;28;20610;-77
2022/03/31 11:37:57;;;;;;;7.53;4.53;;;;;;;;;;5112588;28;20136;-80
2022/03/31 11:40:24;;;;;;;11.90;5.43;;;;;;;;;;5114422;28;20059;-82
2022/03/31 11:42:52;;;;;;;12.00;4.87;;;;;;;;;;5089037;28;20040;-83
2022/03/31 11:45:33;;;;;;;8.97;4.60;;;;;;;;;;5098849;28;20039;-83
2022/03/31 11:48:09;;;;;;;13.80;5.17;;;;;;;;;;5094647;28;20054;-83
2022/03/31 11:50:38;;;;;;;9.00;4.90;;;;;;;;;;5094495;28;20534;-83
2022/03/31 11:53:15;;;;;;;9.77;4.93;;;;;;;;;;5094864;28;20047;-83
2022/03/31 11:55:41;;;;;;;11.90;5.23;;;;;;;;;;5094611;28;20047;-81
2022/03/31 11:58:08;;;;;;;11.37;4.87;;;;;;;;;;5094427;28;20297;-80
2022/03/31 12:00:34;;;;;;;11.23;5.50;;;;;;;;;;5094347;28;20050;-78
2022/03/31 12:03:01;;;;;;;7.37;4.73;;;;;;;;;;5093835;28;20293;-76
2022/03/31 12:05:27;;;;;;;12.00;5.17;;;;;;;;;;5094254;28;20130;-75
2022/03/31 12:07:54;;;;;;;12.63;6.13;;;;;;;;;;5094392;28;20451;-74
2022/03/31 12:10:20;;;;;;;10.40;5.67;;;;;;;;;;5111762;28;20058;-74
2022/03/31 12:12:48;;;;;;;10.50;5.23;;;;;;;;;;5112445;28;20126;-74
2022/03/31 12:15:19;;;;;;;8.53;5.03;;;;;;;;;;5093893;28;20289;-74
2022/03/31 12:17:56;;;;;;;13.70;5.80;;;;;;;;;;5112181;28;20083;-74
2022/03/31 12:20:22;;;;;;;14.87;6.37;;;;;;;;;;5093056;28;20300;-74
2022/03/31 12:22:48;;;;;;;10.30;5.67;;;;;;;;;;5093935;28;20120;-74
2022/03/31 12:25:14;;;;;;;13.37;5.90;;;;;;;;;;5093328;28;20320;-75
2022/03/31 12:27:46;;;;;;;11.97;6.20;;;;;;;;;;5111952;28;20659;-75
2022/03/31 12:30:14;;;;;;;13.00;6.67;;;;;;;;;;5111864;28;20840;-75
2022/03/31 12:32:47;;;;;;;19.43;7.80;;;;;;;;;;5111391;28;20281;-75
2022/03/31 12:35:13;;;;;;;26.60;7.90;;;;;;;;;;5093506;28;20322;-76
2022/03/31 12:37:40;;;;;;;13.63;7.00;;;;;;;;;;5093288;28;20060;-76
2022/03/31 12:40:07;;;;;;;21.40;8.67;;;;;;;;;;5076386;28;20047;-75
2022/03/31 12:42:33;;;;;;;18.97;8.50;;;;;;;;;;5093439;28;20351;-74
2022/03/31 12:44:59;;;;;;;20.83;8.63;;;;;;;;;;5092691;28;20476;-74
2022/03/31 12:47:27;;;;;;;19.23;8.97;;;;;;;;;;5093136;28;20288;-74
2022/03/31 12:49:53;;;;;;;26.17;9.53;;;;;;;;;;5111590;28;20744;-74
2022/03/31 12:52:20;;;;;;;19.40;8.80;;;;;;;;;;5093062;28;20288;-74
2022/03/31 12:54:54;;;;;;;24.33;10.13;;;;;;;;;;5093531;28;20376;-75
2022/03/31 12:57:25;;;;;;;30.00;12.20;;;;;;;;;;5111116;28;20052;-75
2022/03/31 13:00:04;;;;;;;26.27;11.53;;;;;;;;;;5111311;28;20281;-76
2022/03/31 13:02:33;;;;;;;29.87;11.83;;;;;;;;;;5092967;28;20286;-77
2022/03/31 13:04:59;;;;;;;40.33;14.37;;;;;;;;;;5078414;28;20374;-78
2022/03/31 13:07:28;;;;;;;51.40;16.00;;;;;;;;;;5072634;28;20137;-82
2022/03/31 13:09:58;;;;;;;41.27;15.77;;;;;;;;;;5072569;28;20351;-83
2022/03/31 13:12:26;;;;;;;56.23;16.93;;;;;;;;;;5073454;28;20355;-84
2022/03/31 13:14:52;;;;;;;61.93;19.57;;;;;;;;;;5074548;28;20827;-82
2022/03/31 13:17:18;;;;;;;71.60;20.43;;;;;;;;;;5082581;28;20290;-82
2022/03/31 13:19:45;;;;;;;82.77;22.63;;;;;;;;;;5073308;28;20847;-82
2022/03/31 13:22:12;;;;;;;56.13;20.20;;;;;;;;;;5089225;28;20849;-82
2022/03/31 13:24:40;;;;;;;93.77;25.03;;;;;;;;;;5086053;28;20318;-82
2022/03/31 13:27:06;;;;;;;91.10;25.23;;;;;;;;;;5108281;28;20124;-86
2022/03/31 13:29:33;;;;;;;96.30;25.90;;;;;;;;;;5084115;28;20056;-84
2022/03/31 13:31:59;;;;;;;71.97;23.80;;;;;;;;;;5082430;28;20051;-83
2022/03/31 13:34:29;;;;;;;75.70;23.60;;;;;;;;;;5110111;28;20043;-84
2022/03/31 13:37:01;;;;;;;130.13;29.53;;;;;;;;;;5092172;28;20101;-84
2022/03/31 13:39:27;;;;;;;53.80;21.70;;;;;;;;;;5076484;28;20558;-85
2022/03/31 13:41:53;;;;;;;107.53;29.63;;;;;;;;;;5081347;28;20201;-85
2022/03/31 13:44:20;;;;;;;81.67;27.27;;;;;;;;;;5071517;28;20093;-84
2022/03/31 13:46:46;;;;;;;79.13;28.97;;;;;;;;;;5090684;28;20048;-84
2022/03/31 13:49:13;;;;;;;95.63;31.97;;;;;;;;;;5092553;28;20052;-84
2022/03/31 13:51:40;;;;;;;95.67;32.93;;;;;;;;;;5087611;28;20052;-83
2022/03/31 13:54:07;;;;;;;111.73;35.67;;;;;;;;;;5096672;28;20059;-82
2022/03/31 13:56:33;;;;;;;68.03;29.50;;;;;;;;;;5075310;28;20048;-83
2022/03/31 14:01:44;;;;;;;69.60;33.47;;;;;;;;;;5125350;28;20405;-83
2022/03/31 14:04:10;;;;;;;76.90;35.07;;;;;;;;;;5099260;28;20043;-82
2022/03/31 14:06:39;;;;;;;61.80;32.50;;;;;;;;;;5120190;28;20058;-82
2022/03/31 14:09:05;;;;;;;73.50;34.50;;;;;;;;;;5087441;28;20069;-81
2022/03/31 14:11:34;;;;;;;75.97;36.57;;;;;;;;;;5072575;28;20048;-81
2022/03/31 14:14:00;;;;;;;60.70;31.03;;;;;;;;;;5079584;28;20086;-81
2022/03/31 14:16:30;;;;;;;80.50;33.60;;;;;;;;;;5081449;28;20048;-82
2022/03/31 14:18:57;;;;;;;68.80;33.63;;;;;;;;;;5071961;28;20097;-81
2022/03/31 14:21:23;;;;;;;55.73;30.30;;;;;;;;;;5054855;28;20040;-81
2022/03/31 14:23:49;;;;;;;66.10;34.50;;;;;;;;;;5054740;28;20043;-81
2022/03/31 14:26:15;;;;;;;60.00;32.03;;;;;;;;;;5072382;28;20076;-81
2022/03/31 14:28:42;;;;;;;52.70;29.93;;;;;;;;;;5078857;28;20032;-82
2022/03/31 14:31:11;;;;;;;53.87;29.07;;;;;;;;;;5080986;28;20055;-82
2022/03/31 14:33:38;;;;;;;49.07;30.40;;;;;;;;;;5101649;28;20051;-82
2022/03/31 14:36:04;;;;;;;55.10;30.57;;;;;;;;;;5084587;28;20066;-82
2022/03/31 14:38:31;;;;;;;49.67;28.10;;;;;;;;;;5078423;28;20509;-82
2022/03/31 14:40:58;;;;;;;51.40;30.43;;;;;;;;;;5100721;28;20052;-82
2022/03/31 14:43:27;;;;;;;44.33;25.90;;;;;;;;;;5093431;28;20056;-82